Lake Carroll, Illinois
Current Conditions -  °F | °C
As of 2:35 AM on Tuesday 27 Jan 2015 (Local Time) from KSFY Reporting Station
Haze Haze  
Wind Chill: 23°   Ceiling: 3800
Heat Index: 28°   Visibility: 4mi
Dew Point: 27°   Wind: 5mph
Humidity: 93%   Direction: 320°NW
Pressure: 29.98"   Gusts: NA
Location:  42.0719°N, 89.8032°W
Report Text: KSFY 270835Z AUTO 32004KT 4SM BR OVC038 M02/M03 A2998 RMK AO2 T10201030
Loading
Personal Weather Stations






























Interactive Weather Map New forecast layout! Learn more

10-Day Weather Forecast

Advertisements
Track Severe Weather on mobile